メインページ
METAR-TAF:

METAR-TAF

空港 :

コペンハーゲン空港

コペンハーゲン, デンマーク

緯度: 55-37N, 経度: 012-39E, 海抜: 5m

現時点の気象観測

当レポートは22分前の06:50(UTC)に作成
北/北東の風 4kt、北/北西から北東の間で変化する
気温 21°C
湿度 78%
気圧 1013 hPa
視程10km以上
1,500メートル以下は雲なし、積乱雲なし

METAR: EKCH 170650Z 02004KT 340V040 CAVOK 21/17 Q1013 NOSIG

時間: 09:12 (07:12 UTC)

予報

当レポートは1時間48分前の05:24(UTC)に作成
予報は17日の 06時(UTC)から 18日の 06時(UTC)まで有効
の風 4kt
視程10km以上
1,500メートル以下は雲なし、積乱雲なし
17日の 15時(UTC)から 18日の 06時(UTC)まで一時的に
高度5000ftの雲はほとんどない, 積乱雲.
弱いにわか雨

TAF: EKCH 170524Z 1706/1806 35004KT CAVOK TEMPO 1715/1806 -SHRA FEW050CB

4,000以上の空港の気象観測と天気予報(METAR報とTAF報)

利用可能な観測所は地図上に黄色い丸と赤い丸で示す。

丸の上にカーソルを重ねると観測所名を参照できる。

次にクリックすると気象観測と天気予報を参照できる。

マップの切り替え:黒色「×」印の緑ボタンをクリックして拡大、「-」印の緑ボタンをクリックして縮小、緑色の三角印をクリックして隣りの地図に切り替え


METAR-TAF: